Aérodrome :
LOGIN :

S'inscrire | Disclaimer

   EN    FR    IT 

 










Légende :    VFR   VFR Marginal   IFR   IFR Intensif   IFR Très Intensif
Visi : 
Plafond : 
>= 8 km
>= 3000ft
5 à 8 km
1000 à 3000 ft
1500m à 5 km
500 à 1000 ft
800 à 1500m
200 à 500 ft
< 800m
< 200 ft
Symboles :   Orages  Brouillard  Fortes neiges  Fortes précipitations  Vent > 20 kt
SIGMETs :   Divers  Orages  Givrage  Turbulence  Onde Orograph.  Cendres Volcan.







- Altitude de l'aérodrome : 313 ft
- Code IATA : LEH
- Voir les cartes d'approche


LFOH - Le Havre Octeville

DERNIER METAR :
  • 180600Z AUTO 00000KT 6000 FEW002 BKN007 OVC011 14/13 Q1004 BECMG 27015KT

METARs EXPIRÉS :
  • 180530Z AUTO 06002KT 3700 BR BKN002 OVC024 14/13 Q1004
  • 180500Z AUTO 12004KT 9999 OVC002 14/13 Q1003
  • 180430Z AUTO 14004KT 110V170 9999 -RA OVC003/// ///TCU 14/13 Q1003
  • 180400Z AUTO 16004KT 4800 RA BR BKN004/// OVC008/// ///CB 14/14 Q1004
  • 180330Z AUTO VRB03KT 7000 -RA BKN005/// BKN009/// BKN064/// ///CB 14/14 Q1004

TAF AMD TAF LFOH
Valide du 18 à 06h jusqu'au 19 à 06h UTC


180544Z 1806/1906 VRB03KT 3000 BR BKN002 OVC012
BECMG 1806/1808 27015KT 9999 NSW BKN008 BKN020
TEMPO 1809/1811 27017G27KT 4000 SHRA BKN008 BKN020TCU
BECMG 1811/1813 BKN020
TEMPO 1813/1901 27015G25KT
TEMPO 1901/1906 26015G25KT 3000 SHRA BKN012TCU
ATIS : +33 2 35 54 64 93
Pas de NOTAMs connus pour ce terrain.



MET'MAP, la Météo Aéronautique d'un coup d'oeil ! - Copyright ORBIFLY Décembre 2007 - Disclaimer

ORBIFLY MET'MAP TEAM :

Programmation & Développement : Alexandra Zaïnal
Conception & Développement : Baudouin d'Aumeries
Co-Programmation & Développement : Marc-Olivier Méhu
Soutien technique & logistique : Manuel Goepfert

Contact : metmap@orbifly.com




SOURCES & CREDITS :

   NOAA